sensor_id;sensor_type;location;lat;lon;timestamp;pressure;altitude;pressure_sealevel;temperature;humidity
60307;BME280;46155;52.364;6.580;2023-07-24T03:03:13;100029.00;;;17.38;100.00
60307;BME280;46155;52.364;6.580;2023-07-24T03:05:39;100025.50;;;17.40;100.00
60307;BME280;46155;52.364;6.580;2023-07-24T03:08:04;100023.72;;;17.40;100.00
60307;BME280;46155;52.364;6.580;2023-07-24T03:10:29;100014.94;;;17.43;100.00
60307;BME280;46155;52.364;6.580;2023-07-24T03:12:55;100031.72;;;17.43;100.00
60307;BME280;46155;52.364;6.580;2023-07-24T03:15:20;100022.91;;;17.43;100.00
60307;BME280;46155;52.364;6.580;2023-07-24T03:17:46;100019.41;;;17.45;100.00
60307;BME280;46155;52.364;6.580;2023-07-24T03:20:16;100029.13;;;17.46;100.00
60307;BME280;46155;52.364;6.580;2023-07-24T03:22:42;100014.09;;;17.45;100.00
60307;BME280;46155;52.364;6.580;2023-07-24T03:25:08;100009.72;;;17.47;100.00
60307;BME280;46155;52.364;6.580;2023-07-24T03:27:34;100012.38;;;17.47;100.00
60307;BME280;46155;52.364;6.580;2023-07-24T03:29:59;100019.41;;;17.45;100.00
60307;BME280;46155;52.364;6.580;2023-07-24T03:32:25;100015.00;;;17.47;100.00
60307;BME280;46155;52.364;6.580;2023-07-24T03:34:50;100010.56;;;17.46;100.00
60307;BME280;46155;52.364;6.580;2023-07-24T03:37:15;100015.88;;;17.46;100.00
60307;BME280;46155;52.364;6.580;2023-07-24T03:39:41;100004.41;;;17.47;100.00
60307;BME280;46155;52.364;6.580;2023-07-24T03:42:06;100004.41;;;17.47;100.00
60307;BME280;46155;52.364;6.580;2023-07-24T03:44:31;99997.31;;;17.48;100.00
60307;BME280;46155;52.364;6.580;2023-07-24T03:46:57;100002.72;;;17.51;100.00
60307;BME280;46155;52.364;6.580;2023-07-24T03:49:22;99994.78;;;17.52;100.00
60307;BME280;46155;52.364;6.580;2023-07-24T03:51:48;100000.13;;;17.54;100.00
60307;BME280;46155;52.364;6.580;2023-07-24T03:54:13;100000.16;;;17.55;100.00
60307;BME280;46155;52.364;6.580;2023-07-24T03:56:39;99996.63;;;17.55;100.00
60307;BME280;46155;52.364;6.580;2023-07-24T03:59:05;99993.03;;;17.54;100.00
60307;BME280;46155;52.364;6.580;2023-07-24T04:01:31;99994.84;;;17.55;100.00
60307;BME280;46155;52.364;6.580;2023-07-24T04:03:58;99989.50;;;17.54;100.00
60307;BME280;46155;52.364;6.580;2023-07-24T04:06:24;99993.03;;;17.54;100.00
60307;BME280;46155;52.364;6.580;2023-07-24T04:08:49;99997.50;;;17.55;100.00
60307;BME280;46155;52.364;6.580;2023-07-24T04:11:14;99990.41;;;17.56;100.00
60307;BME280;46155;52.364;6.580;2023-07-24T04:13:40;99986.03;;;17.57;100.00
60307;BME280;46155;52.364;6.580;2023-07-24T04:16:05;99978.91;;;17.55;100.00
60307;BME280;46155;52.364;6.580;2023-07-24T04:18:30;99978.97;;;17.59;100.00
60307;BME280;46155;52.364;6.580;2023-07-24T04:20:56;99978.97;;;17.59;100.00
60307;BME280;46155;52.364;6.580;2023-07-24T04:23:22;99965.69;;;17.59;100.00
60307;BME280;46155;52.364;6.580;2023-07-24T04:25:49;99969.22;;;17.58;100.00
60307;BME280;46155;52.364;6.580;2023-07-24T04:28:14;99974.53;;;17.58;100.00
60307;BME280;46155;52.364;6.580;2023-07-24T04:30:40;99979.81;;;17.58;100.00
60307;BME280;46155;52.364;6.580;2023-07-24T04:33:05;99982.50;;;17.59;100.00
60307;BME280;46155;52.364;6.580;2023-07-24T04:35:30;99978.09;;;17.58;100.00
60307;BME280;46155;52.364;6.580;2023-07-24T04:37:56;99971.88;;;17.58;100.00
60307;BME280;46155;52.364;6.580;2023-07-24T04:40:22;99980.75;;;17.58;100.00
60307;BME280;46155;52.364;6.580;2023-07-24T04:42:48;99980.75;;;17.58;100.00
60307;BME280;46155;52.364;6.580;2023-07-24T04:45:13;99977.16;;;17.58;100.00
60307;BME280;46155;52.364;6.580;2023-07-24T04:47:38;99984.28;;;17.59;100.00
60307;BME280;46155;52.364;6.580;2023-07-24T04:50:04;99978.97;;;17.59;100.00
60307;BME280;46155;52.364;6.580;2023-07-24T04:52:30;99970.97;;;17.57;100.00
60307;BME280;46155;52.364;6.580;2023-07-24T04:54:55;99975.41;;;17.57;100.00
60307;BME280;46155;52.364;6.580;2023-07-24T04:57:20;99976.28;;;17.57;100.00
60307;BME280;46155;52.364;6.580;2023-07-24T04:59:46;99975.47;;;17.60;100.00
60307;BME280;46155;52.364;6.580;2023-07-24T05:02:11;99971.88;;;17.58;100.00
60307;BME280;46155;52.364;6.580;2023-07-24T05:04:37;99971.81;;;17.54;100.00
60307;BME280;46155;52.364;6.580;2023-07-24T05:07:02;99977.13;;;17.54;100.00
60307;BME280;46155;52.364;6.580;2023-07-24T05:09:28;99977.94;;;17.52;100.00
60307;BME280;46155;52.364;6.580;2023-07-24T05:11:53;99965.53;;;17.49;100.00
60307;BME280;46155;52.364;6.580;2023-07-24T05:14:18;99957.50;;;17.46;100.00
60307;BME280;46155;52.364;6.580;2023-07-24T05:16:44;99950.22;;;17.36;100.00
60307;BME280;46155;52.364;6.580;2023-07-24T05:19:09;99947.56;;;17.34;100.00
60307;BME280;46155;52.364;6.580;2023-07-24T05:21:34;99959.03;;;17.35;100.00
60307;BME280;46155;52.364;6.580;2023-07-24T05:24:00;99957.31;;;17.35;100.00
60307;BME280;46155;52.364;6.580;2023-07-24T05:26:25;99959.03;;;17.35;100.00
60307;BME280;46155;52.364;6.580;2023-07-24T05:28:50;99970.56;;;17.35;100.00
60307;BME280;46155;52.364;6.580;2023-07-24T05:31:18;99975.88;;;17.35;100.00
60307;BME280;46155;52.364;6.580;2023-07-24T05:33:43;99983.81;;;17.34;100.00
60307;BME280;46155;52.364;6.580;2023-07-24T05:36:08;99979.34;;;17.33;100.00
60307;BME280;46155;52.364;6.580;2023-07-24T05:38:34;99974.03;;;17.31;100.00
60307;BME280;46155;52.364;6.580;2023-07-24T05:41:01;99974.03;;;17.31;100.00
60307;BME280;46155;52.364;6.580;2023-07-24T05:43:28;99979.38;;;17.34;100.00
60307;BME280;46155;52.364;6.580;2023-07-24T05:45:55;99979.41;;;17.36;100.00
60307;BME280;46155;52.364;6.580;2023-07-24T05:48:21;99975.09;;;17.40;100.00
60307;BME280;46155;52.364;6.580;2023-07-24T05:50:46;99985.72;;;17.41;100.00
60307;BME280;46155;52.364;6.580;2023-07-24T05:53:13;99983.91;;;17.40;100.00
60307;BME280;46155;52.364;6.580;2023-07-24T05:55:38;99983.13;;;17.44;100.00
60307;BME280;46155;52.364;6.580;2023-07-24T05:58:04;99984.03;;;17.46;100.00
60307;BME280;46155;52.364;6.580;2023-07-24T06:00:29;99982.31;;;17.48;100.00
60307;BME280;46155;52.364;6.580;2023-07-24T06:02:54;99979.59;;;17.44;100.00
60307;BME280;46155;52.364;6.580;2023-07-24T06:05:20;99972.44;;;17.40;100.00
60307;BME280;46155;52.364;6.580;2023-07-24T06:07:46;99983.88;;;17.37;100.00
60307;BME280;46155;52.364;6.580;2023-07-24T06:10:12;99993.56;;;17.36;100.00
60307;BME280;46155;52.364;6.580;2023-07-24T06:12:37;100004.25;;;17.40;100.00
60307;BME280;46155;52.364;6.580;2023-07-24T06:15:03;99996.28;;;17.38;100.00
60307;BME280;46155;52.364;6.580;2023-07-24T06:17:29;99995.41;;;17.41;100.00
60307;BME280;46155;52.364;6.580;2023-07-24T06:19:54;100001.63;;;17.41;100.00
60307;BME280;46155;52.364;6.580;2023-07-24T06:22:19;99997.22;;;17.42;100.00
60307;BME280;46155;52.364;6.580;2023-07-24T06:24:45;100002.56;;;17.45;100.00
60307;BME280;46155;52.364;6.580;2023-07-24T06:27:10;99991.19;;;17.50;100.00
60307;BME280;46155;52.364;6.580;2023-07-24T06:29:35;99992.16;;;17.54;100.00
60307;BME280;46155;52.364;6.580;2023-07-24T06:32:01;99991.34;;;17.57;100.00
60307;BME280;46155;52.364;6.580;2023-07-24T06:34:26;99983.38;;;17.57;100.00
60307;BME280;46155;52.364;6.580;2023-07-24T06:36:51;99973.66;;;17.59;100.00
60307;BME280;46155;52.364;6.580;2023-07-24T06:39:17;99984.53;;;17.71;100.00
60307;BME280;46155;52.364;6.580;2023-07-24T06:41:42;99987.22;;;17.74;100.00
60307;BME280;46155;52.364;6.580;2023-07-24T06:44:07;99987.25;;;17.76;100.00
60307;BME280;46155;52.364;6.580;2023-07-24T06:46:33;99998.88;;;17.82;100.00
60307;BME280;46155;52.364;6.580;2023-07-24T06:48:58;99994.66;;;17.91;100.00
60307;BME280;46155;52.364;6.580;2023-07-24T06:51:23;99998.19;;;17.91;100.00
60307;BME280;46155;52.364;6.580;2023-07-24T06:53:49;99995.44;;;17.88;100.00
60307;BME280;46155;52.364;6.580;2023-07-24T06:56:14;99999.00;;;17.88;100.00
60307;BME280;46155;52.364;6.580;2023-07-24T06:58:39;99990.13;;;17.86;100.00
60307;BME280;46155;52.364;6.580;2023-07-24T07:01:06;99991.69;;;17.75;100.00
60307;BME280;46155;52.364;6.580;2023-07-24T07:03:32;99999.78;;;17.83;100.00
60307;BME280;46155;52.364;6.580;2023-07-24T07:06:01;100004.16;;;17.79;100.00
60307;BME280;46155;52.364;6.580;2023-07-24T07:08:26;100001.59;;;17.85;100.00
60307;BME280;46155;52.364;6.580;2023-07-24T07:10:59;100001.66;;;17.90;100.00
60307;BME280;46155;52.364;6.580;2023-07-24T07:13:24;100006.91;;;17.85;100.00
60307;BME280;46155;52.364;6.580;2023-07-24T07:15:50;100005.22;;;17.89;100.00
60307;BME280;46155;52.364;6.580;2023-07-24T07:18:15;100002.63;;;17.91;100.00
60307;BME280;46155;52.364;6.580;2023-07-24T07:20:47;100001.66;;;17.90;100.00
60307;BME280;46155;52.364;6.580;2023-07-24T07:23:13;99997.19;;;17.87;100.00
60307;BME280;46155;52.364;6.580;2023-07-24T07:25:38;99996.34;;;17.90;100.00
60307;BME280;46155;52.364;6.580;2023-07-24T07:28:04;99990.41;;;18.00;100.00
60307;BME280;46155;52.364;6.580;2023-07-24T07:30:29;99999.53;;;18.18;100.00
60307;BME280;46155;52.364;6.580;2023-07-24T07:32:54;99997.22;;;18.39;100.00
60307;BME280;46155;52.364;6.580;2023-07-24T07:35:20;99999.44;;;18.68;100.00
60307;BME280;46155;52.364;6.580;2023-07-24T07:37:45;99992.66;;;18.87;100.00
60307;BME280;46155;52.364;6.580;2023-07-24T07:40:11;99996.34;;;18.97;100.00
60307;BME280;46155;52.364;6.580;2023-07-24T07:42:37;99999.00;;;18.96;100.00
60307;BME280;46155;52.364;6.580;2023-07-24T07:45:03;99995.53;;;19.03;100.00
60307;BME280;46155;52.364;6.580;2023-07-24T07:47:28;99983.25;;;19.11;100.00
60307;BME280;46155;52.364;6.580;2023-07-24T07:49:54;99986.97;;;19.25;100.00
60307;BME280;46155;52.364;6.580;2023-07-24T07:52:19;99989.00;;;19.48;100.00
60307;BME280;46155;52.364;6.580;2023-07-24T07:54:49;99990.09;;;19.67;100.00
60307;BME280;46155;52.364;6.580;2023-07-24T07:57:15;99980.38;;;19.71;100.00
60307;BME280;46155;52.364;6.580;2023-07-24T07:59:41;99985.69;;;19.68;100.00
60307;BME280;46155;52.364;6.580;2023-07-24T08:02:06;99984.75;;;19.66;100.00
60307;BME280;46155;52.364;6.580;2023-07-24T08:04:32;99994.56;;;19.70;100.00
60307;BME280;46155;52.364;6.580;2023-07-24T08:06:57;99992.75;;;19.69;100.00
60307;BME280;46155;52.364;6.580;2023-07-24T08:09:23;99970.44;;;19.56;100.00
60307;BME280;46155;52.364;6.580;2023-07-24T08:11:49;99995.38;;;19.64;100.00
60307;BME280;46155;52.364;6.580;2023-07-24T08:14:14;99991.75;;;19.59;100.00
60307;BME280;46155;52.364;6.580;2023-07-24T08:16:40;99976.50;;;19.41;100.00
60307;BME280;46155;52.364;6.580;2023-07-24T08:19:05;99988.81;;;19.31;100.00
60307;BME280;46155;52.364;6.580;2023-07-24T08:21:30;99982.47;;;19.20;100.00
60307;BME280;46155;52.364;6.580;2023-07-24T08:23:56;99977.91;;;19.09;100.00
60307;BME280;46155;52.364;6.580;2023-07-24T08:26:22;99979.56;;;19.03;100.00
60307;BME280;46155;52.364;6.580;2023-07-24T08:28:49;99984.84;;;18.98;100.00
60307;BME280;46155;52.364;6.580;2023-07-24T08:31:15;99983.91;;;18.96;100.00
60307;BME280;46155;52.364;6.580;2023-07-24T08:33:40;99985.72;;;18.97;100.00
60307;BME280;46155;52.364;6.580;2023-07-24T08:36:07;99978.78;;;19.10;100.00
60307;BME280;46155;52.364;6.580;2023-07-24T08:38:33;99969.41;;;19.43;100.00
60307;BME280;46155;52.364;6.580;2023-07-24T08:43:31;99983.22;;;19.86;100.00
60307;BME280;46155;52.364;6.580;2023-07-24T08:45:58;99974.28;;;19.81;100.00
60307;BME280;46155;52.364;6.580;2023-07-24T08:48:26;99975.06;;;19.74;100.00
60307;BME280;46155;52.364;6.580;2023-07-24T08:50:52;99972.38;;;19.69;100.00
60307;BME280;46155;52.364;6.580;2023-07-24T08:53:19;99974.09;;;19.67;100.00
60307;BME280;46155;52.364;6.580;2023-07-24T08:55:47;99966.09;;;19.63;100.00
60307;BME280;46155;52.364;6.580;2023-07-24T08:58:13;99976.75;;;19.66;100.00
60307;BME280;46155;52.364;6.580;2023-07-24T09:00:39;99974.22;;;19.75;100.00
60307;BME280;46155;52.364;6.580;2023-07-24T09:03:05;99982.22;;;19.78;100.00
60307;BME280;46155;52.364;6.580;2023-07-24T09:05:30;99971.53;;;19.73;100.00
60307;BME280;46155;52.364;6.580;2023-07-24T09:07:56;99982.19;;;19.75;100.00
60307;BME280;46155;52.364;6.580;2023-07-24T09:10:27;99969.63;;;19.61;100.00
60307;BME280;46155;52.364;6.580;2023-07-24T09:12:54;99971.25;;;19.47;100.00
60307;BME280;46155;52.364;6.580;2023-07-24T09:15:20;99967.59;;;19.40;100.00
60307;BME280;46155;52.364;6.580;2023-07-24T09:17:52;99966.91;;;19.55;100.00
60307;BME280;46155;52.364;6.580;2023-07-24T09:20:19;99964.44;;;19.77;100.00
60307;BME280;46155;52.364;6.580;2023-07-24T09:22:52;99964.63;;;19.92;100.00
60307;BME280;46155;52.364;6.580;2023-07-24T09:25:18;99962.97;;;20.07;100.00
60307;BME280;46155;52.364;6.580;2023-07-24T09:27:44;99968.53;;;20.35;100.00
60307;BME280;46155;52.364;6.580;2023-07-24T09:30:14;99960.59;;;20.45;100.00
60307;BME280;46155;52.364;6.580;2023-07-24T09:32:40;99961.50;;;20.43;100.00
60307;BME280;46155;52.364;6.580;2023-07-24T09:35:19;99964.97;;;20.33;100.00
60307;BME280;46155;52.364;6.580;2023-07-24T09:37:45;99960.47;;;20.27;100.00
60307;BME280;46155;52.364;6.580;2023-07-24T09:40:11;99964.81;;;20.14;100.00
60307;BME280;46155;52.364;6.580;2023-07-24T09:42:37;99956.88;;;20.19;100.00
60307;BME280;46155;52.364;6.580;2023-07-24T09:45:04;99953.38;;;20.27;100.00
60307;BME280;46155;52.364;6.580;2023-07-24T09:47:30;99955.25;;;20.41;100.00
60307;BME280;46155;52.364;6.580;2023-07-24T09:49:56;99958.03;;;20.59;100.00
60307;BME280;46155;52.364;6.580;2023-07-24T09:52:24;99948.44;;;20.80;100.00
60307;BME280;46155;52.364;6.580;2023-07-24T09:54:57;99959.13;;;20.88;99.68
60307;BME280;46155;52.364;6.580;2023-07-24T09:57:25;99949.28;;;20.76;100.00
60307;BME280;46155;52.364;6.580;2023-07-24T09:59:52;99949.28;;;20.73;100.00
60307;BME280;46155;52.364;6.580;2023-07-24T10:02:18;99949.31;;;20.85;100.00
60307;BME280;46155;52.364;6.580;2023-07-24T10:04:44;99944.09;;;21.04;100.00
60307;BME280;46155;52.364;6.580;2023-07-24T10:07:10;99948.53;;;21.00;100.00
60307;BME280;46155;52.364;6.580;2023-07-24T10:09:36;99945.00;;;21.09;100.00
60307;BME280;46155;52.364;6.580;2023-07-24T10:12:05;99940.59;;;21.22;100.00
60307;BME280;46155;52.364;6.580;2023-07-24T10:14:30;99933.50;;;21.31;100.00
60307;BME280;46155;52.364;6.580;2023-07-24T10:16:56;99933.56;;;21.50;100.00
60307;BME280;46155;52.364;6.580;2023-07-24T10:19:22;99933.66;;;21.75;100.00
60307;BME280;46155;52.364;6.580;2023-07-24T10:21:48;99925.63;;;21.99;100.00
60307;BME280;46155;52.364;6.580;2023-07-24T10:24:15;99919.41;;;22.19;96.53
60307;BME280;46155;52.364;6.580;2023-07-24T10:26:41;99918.50;;;22.28;93.64
60307;BME280;46155;52.364;6.580;2023-07-24T10:29:06;99914.06;;;22.38;94.97
60307;BME280;46155;52.364;6.580;2023-07-24T10:31:32;99912.25;;;22.46;93.23
60307;BME280;46155;52.364;6.580;2023-07-24T10:34:04;99914.94;;;22.38;90.38
60307;BME280;46155;52.364;6.580;2023-07-24T10:36:33;99903.34;;;22.25;92.95
60307;BME280;46155;52.364;6.580;2023-07-24T10:39:00;99902.47;;;22.00;89.91
60307;BME280;46155;52.364;6.580;2023-07-24T10:41:36;99906.94;;;21.90;93.91
60307;BME280;46155;52.364;6.580;2023-07-24T10:44:03;99901.59;;;21.90;91.19
60307;BME280;46155;52.364;6.580;2023-07-24T10:46:39;99894.44;;;21.77;89.95
60307;BME280;46155;52.364;6.580;2023-07-24T10:49:06;99893.56;;;21.56;90.25
60307;BME280;46155;52.364;6.580;2023-07-24T10:51:31;99899.69;;;21.30;92.22
60307;BME280;46155;52.364;6.580;2023-07-24T10:53:59;99899.63;;;21.09;91.86
60307;BME280;46155;52.364;6.580;2023-07-24T10:56:25;99888.00;;;20.91;92.52
60307;BME280;46155;52.364;6.580;2023-07-24T10:58:50;99891.53;;;20.81;92.55
60307;BME280;46155;52.364;6.580;2023-07-24T11:01:17;99883.50;;;20.78;94.09
60307;BME280;46155;52.364;6.580;2023-07-24T11:03:43;99891.56;;;20.92;96.89
60307;BME280;46155;52.364;6.580;2023-07-24T11:06:16;99895.19;;;21.09;95.84
60307;BME280;46155;52.364;6.580;2023-07-24T11:08:42;99910.34;;;21.21;94.86
60307;BME280;46155;52.364;6.580;2023-07-24T11:11:08;99903.22;;;21.17;92.09
60307;BME280;46155;52.364;6.580;2023-07-24T11:13:34;99886.28;;;21.10;92.28
60307;BME280;46155;52.364;6.580;2023-07-24T11:16:05;99881.81;;;21.06;93.39
60307;BME280;46155;52.364;6.580;2023-07-24T11:18:30;99888.06;;;21.10;94.13
60307;BME280;46155;52.364;6.580;2023-07-24T11:20:56;99888.97;;;21.15;94.94
60307;BME280;46155;52.364;6.580;2023-07-24T11:23:23;99898.75;;;21.16;92.45
60307;BME280;46155;52.364;6.580;2023-07-24T11:25:52;99912.09;;;21.07;93.52
60307;BME280;46155;52.364;6.580;2023-07-24T11:28:18;99917.38;;;20.96;93.22
60307;BME280;46155;52.364;6.580;2023-07-24T11:30:44;99916.44;;;20.85;93.73
60307;BME280;46155;52.364;6.580;2023-07-24T11:33:11;99925.28;;;20.79;95.11
60307;BME280;46155;52.364;6.580;2023-07-24T11:35:37;99927.84;;;20.67;95.38
60307;BME280;46155;52.364;6.580;2023-07-24T11:38:05;99921.63;;;20.63;96.61
60307;BME280;46155;52.364;6.580;2023-07-24T11:40:40;99917.16;;;20.60;95.39
60307;BME280;46155;52.364;6.580;2023-07-24T11:43:18;99919.84;;;20.62;95.92
60307;BME280;46155;52.364;6.580;2023-07-24T11:45:44;99933.19;;;20.67;95.86
60307;BME280;46155;52.364;6.580;2023-07-24T11:48:11;99924.31;;;20.64;95.51
60307;BME280;46155;52.364;6.580;2023-07-24T11:50:51;99922.50;;;20.65;96.78
60307;BME280;46155;52.364;6.580;2023-07-24T11:53:25;99920.81;;;20.67;95.35
60307;BME280;46155;52.364;6.580;2023-07-24T11:55:52;99918.97;;;20.63;96.41
60307;BME280;46155;52.364;6.580;2023-07-24T11:58:19;99907.38;;;20.62;96.31
60307;BME280;46155;52.364;6.580;2023-07-24T12:00:46;99904.75;;;20.64;97.51
60307;BME280;46155;52.364;6.580;2023-07-24T12:03:13;99898.47;;;20.53;96.25
60307;BME280;46155;52.364;6.580;2023-07-24T12:05:41;99894.91;;;20.54;96.06
60307;BME280;46155;52.364;6.580;2023-07-24T12:08:07;99893.16;;;20.60;96.90
60307;BME280;46155;52.364;6.580;2023-07-24T12:10:36;99898.63;;;20.76;97.82
60307;BME280;46155;52.364;6.580;2023-07-24T12:13:02;99888.00;;;20.88;97.97
60307;BME280;46155;52.364;6.580;2023-07-24T12:15:28;99890.69;;;21.01;95.47
60307;BME280;46155;52.364;6.580;2023-07-24T12:17:53;99883.63;;;21.06;94.40
60307;BME280;46155;52.364;6.580;2023-07-24T12:20:18;99886.28;;;21.06;96.40
60307;BME280;46155;52.364;6.580;2023-07-24T12:22:44;99883.59;;;21.04;94.06
60307;BME280;46155;52.364;6.580;2023-07-24T12:25:09;99883.63;;;21.06;93.80
60307;BME280;46155;52.364;6.580;2023-07-24T12:27:35;99887.16;;;21.02;93.21
60307;BME280;46155;52.364;6.580;2023-07-24T12:30:01;99876.47;;;20.95;90.82
60307;BME280;46155;52.364;6.580;2023-07-24T12:32:26;99883.56;;;20.93;92.45
60307;BME280;46155;52.364;6.580;2023-07-24T12:34:53;99881.81;;;20.92;92.45
60307;BME280;46155;52.364;6.580;2023-07-24T12:37:19;99886.28;;;21.00;93.56
60307;BME280;46155;52.364;6.580;2023-07-24T12:39:45;99883.59;;;21.03;93.39
60307;BME280;46155;52.364;6.580;2023-07-24T12:42:12;99884.53;;;21.09;93.21
60307;BME280;46155;52.364;6.580;2023-07-24T12:44:37;99881.88;;;21.23;94.73
60307;BME280;46155;52.364;6.580;2023-07-24T12:47:06;99890.78;;;21.31;92.96
60307;BME280;46155;52.364;6.580;2023-07-24T12:49:31;99893.47;;;21.38;90.90
60307;BME280;46155;52.364;6.580;2023-07-24T12:51:57;99893.50;;;21.45;89.60
60307;BME280;46155;52.364;6.580;2023-07-24T12:54:22;99892.63;;;21.48;90.66
60307;BME280;46155;52.364;6.580;2023-07-24T12:56:49;99901.56;;;21.58;92.78
60307;BME280;46155;52.364;6.580;2023-07-24T12:59:14;99906.94;;;21.81;94.02
60307;BME280;46155;52.364;6.580;2023-07-24T13:01:40;99903.38;;;21.88;88.92
60307;BME280;46155;52.364;6.580;2023-07-24T13:04:05;99868.66;;;21.79;89.93
60307;BME280;46155;52.364;6.580;2023-07-24T13:06:31;99903.38;;;22.02;86.57
60307;BME280;46155;52.364;6.580;2023-07-24T13:08:56;99903.38;;;21.85;86.31
60307;BME280;46155;52.364;6.580;2023-07-24T13:11:21;99903.34;;;21.76;87.43
60307;BME280;46155;52.364;6.580;2023-07-24T13:13:47;99901.59;;;21.75;87.06
60307;BME280;46155;52.364;6.580;2023-07-24T13:16:12;99891.78;;;21.77;88.01
60307;BME280;46155;52.364;6.580;2023-07-24T13:18:38;99888.22;;;21.79;88.19
60307;BME280;46155;52.364;6.580;2023-07-24T13:21:03;99879.31;;;21.87;87.40
60307;BME280;46155;52.364;6.580;2023-07-24T13:23:31;99882.88;;;21.89;87.38
60307;BME280;46155;52.364;6.580;2023-07-24T13:25:56;99887.31;;;21.91;89.10
60307;BME280;46155;52.364;6.580;2023-07-24T13:28:22;99878.41;;;21.95;89.91
60307;BME280;46155;52.364;6.580;2023-07-24T13:30:47;99867.72;;;22.00;89.85
60307;BME280;46155;52.364;6.580;2023-07-24T13:33:12;99875.75;;;22.03;88.80
60307;BME280;46155;52.364;6.580;2023-07-24T13:35:38;99870.41;;;22.05;90.27
60307;BME280;46155;52.364;6.580;2023-07-24T13:38:03;99873.06;;;22.08;89.28
60307;BME280;46155;52.364;6.580;2023-07-24T13:40:29;99880.22;;;22.07;88.27
60307;BME280;46155;52.364;6.580;2023-07-24T13:42:54;99876.66;;;22.00;87.42
60307;BME280;46155;52.364;6.580;2023-07-24T13:45:19;99878.41;;;21.98;87.83
60307;BME280;46155;52.364;6.580;2023-07-24T13:47:45;99875.75;;;21.92;86.41
60307;BME280;46155;52.364;6.580;2023-07-24T13:50:10;99866.84;;;21.89;89.54
60307;BME280;46155;52.364;6.580;2023-07-24T13:52:35;99864.16;;;21.87;89.58
60307;BME280;46155;52.364;6.580;2023-07-24T13:55:02;99861.50;;;21.82;87.97
60307;BME280;46155;52.364;6.580;2023-07-24T13:57:27;99857.06;;;21.89;89.55
60307;BME280;46155;52.364;6.580;2023-07-24T13:59:53;99862.41;;;21.89;89.50
60307;BME280;46155;52.364;6.580;2023-07-24T14:02:18;99870.44;;;21.84;88.10
60307;BME280;46155;52.364;6.580;2023-07-24T14:04:44;99873.06;;;21.83;87.80
60307;BME280;46155;52.364;6.580;2023-07-24T14:07:09;99865.97;;;21.85;87.91
60307;BME280;46155;52.364;6.580;2023-07-24T14:09:35;99865.06;;;21.72;86.38
60307;BME280;46155;52.364;6.580;2023-07-24T14:12:00;99870.41;;;21.66;87.42
60307;BME280;46155;52.364;6.580;2023-07-24T14:14:26;99857.97;;;21.65;86.75
60307;BME280;46155;52.364;6.580;2023-07-24T14:16:51;99861.50;;;21.61;87.53
60307;BME280;46155;52.364;6.580;2023-07-24T14:19:16;99865.94;;;21.54;87.88
60307;BME280;46155;52.364;6.580;2023-07-24T14:21:43;99870.34;;;21.47;87.19
60307;BME280;46155;52.364;6.580;2023-07-24T14:24:08;99873.91;;;21.42;84.78
60307;BME280;46155;52.364;6.580;2023-07-24T14:26:34;99880.13;;;21.35;86.77
60307;BME280;46155;52.364;6.580;2023-07-24T14:29:01;99883.66;;;21.24;86.01
60307;BME280;46155;52.364;6.580;2023-07-24T14:31:27;99890.75;;;21.16;86.19
60307;BME280;46155;52.364;6.580;2023-07-24T14:33:53;99883.59;;;21.03;86.05
60307;BME280;46155;52.364;6.580;2023-07-24T14:36:20;99896.03;;;20.91;87.15
60307;BME280;46155;52.364;6.580;2023-07-24T14:38:45;99895.06;;;20.80;89.69
60307;BME280;46155;52.364;6.580;2023-07-24T14:41:10;99888.72;;;20.62;92.26
60307;BME280;46155;52.364;6.580;2023-07-24T14:43:39;99899.38;;;20.61;92.45
60307;BME280;46155;52.364;6.580;2023-07-24T14:46:04;99908.22;;;20.51;94.40
60307;BME280;46155;52.364;6.580;2023-07-24T14:48:30;99909.06;;;20.40;97.84
60307;BME280;46155;52.364;6.580;2023-07-24T14:50:55;99924.06;;;20.24;100.00
60307;BME280;46155;52.364;6.580;2023-07-24T14:53:21;99915.03;;;20.07;100.00
60307;BME280;46155;52.364;6.580;2023-07-24T14:55:46;99915.81;;;19.93;100.00
60307;BME280;46155;52.364;6.580;2023-07-24T14:58:11;99914.69;;;19.73;100.00
60307;BME280;46155;52.364;6.580;2023-07-24T15:00:37;99902.22;;;19.66;100.00
60307;BME280;46155;52.364;6.580;2023-07-24T15:03:02;99910.97;;;19.54;100.00
60307;BME280;46155;52.364;6.580;2023-07-24T15:05:28;99906.47;;;19.45;100.00
60307;BME280;46155;52.364;6.580;2023-07-24T15:07:53;99909.94;;;19.39;100.00
60307;BME280;46155;52.364;6.580;2023-07-24T15:10:18;99904.63;;;19.38;100.00
60307;BME280;46155;52.364;6.580;2023-07-24T15:12:43;99910.81;;;19.37;100.00
60307;BME280;46155;52.364;6.580;2023-07-24T15:15:09;99902.78;;;19.34;100.00
60307;BME280;46155;52.364;6.580;2023-07-24T15:17:34;99903.75;;;19.42;100.00
60307;BME280;46155;52.364;6.580;2023-07-24T15:20:00;99906.47;;;19.45;100.00
60307;BME280;46155;52.364;6.580;2023-07-24T15:22:25;99893.06;;;19.39;100.00
60307;BME280;46155;52.364;6.580;2023-07-24T15:24:50;99895.81;;;19.45;100.00
60307;BME280;46155;52.364;6.580;2023-07-24T15:27:16;99887.75;;;19.39;100.00
60307;BME280;46155;52.364;6.580;2023-07-24T15:29:41;99889.53;;;19.40;100.00
60307;BME280;46155;52.364;6.580;2023-07-24T15:32:07;99897.59;;;19.48;100.00
60307;BME280;46155;52.364;6.580;2023-07-24T15:34:32;99890.53;;;19.50;100.00
60307;BME280;46155;52.364;6.580;2023-07-24T15:36:58;99890.53;;;19.50;100.00
60307;BME280;46155;52.364;6.580;2023-07-24T15:39:23;99910.13;;;19.55;100.00
60307;BME280;46155;52.364;6.580;2023-07-24T15:41:49;99899.47;;;19.56;100.00
60307;BME280;46155;52.364;6.580;2023-07-24T15:44:14;99892.38;;;19.57;100.00
60307;BME280;46155;52.364;6.580;2023-07-24T15:46:39;99899.47;;;19.56;100.00
60307;BME280;46155;52.364;6.580;2023-07-24T15:49:05;99899.41;;;19.52;100.00
60307;BME280;46155;52.364;6.580;2023-07-24T15:51:30;99901.09;;;19.42;100.00